sensor_id;sensor_type;location;lat;lon;timestamp;P1;durP1;ratioP1;P2;durP2;ratioP2
9720;SDS011;4899;42.644;23.366;2022-11-20T00:01:07;95.17;;;55.43;;
9720;SDS011;4899;42.644;23.366;2022-11-20T00:03:36;89.10;;;54.50;;
9720;SDS011;4899;42.644;23.366;2022-11-20T00:06:03;90.27;;;51.40;;
9720;SDS011;4899;42.644;23.366;2022-11-20T00:08:33;71.73;;;47.83;;
9720;SDS011;4899;42.644;23.366;2022-11-20T00:11:03;78.47;;;47.77;;
9720;SDS011;4899;42.644;23.366;2022-11-20T00:13:31;79.07;;;48.27;;
9720;SDS011;4899;42.644;23.366;2022-11-20T00:15:58;77.73;;;49.13;;
9720;SDS011;4899;42.644;23.366;2022-11-20T00:18:26;87.00;;;50.10;;
9720;SDS011;4899;42.644;23.366;2022-11-20T00:20:53;70.73;;;47.53;;
9720;SDS011;4899;42.644;23.366;2022-11-20T00:23:19;83.07;;;48.53;;
9720;SDS011;4899;42.644;23.366;2022-11-20T00:25:46;70.30;;;47.20;;
9720;SDS011;4899;42.644;23.366;2022-11-20T00:28:14;81.33;;;49.53;;
9720;SDS011;4899;42.644;23.366;2022-11-20T00:30:41;67.20;;;42.83;;
9720;SDS011;4899;42.644;23.366;2022-11-20T00:33:08;64.47;;;40.87;;
9720;SDS011;4899;42.644;23.366;2022-11-20T00:35:35;52.97;;;35.57;;
9720;SDS011;4899;42.644;23.366;2022-11-20T00:38:01;44.60;;;32.40;;
9720;SDS011;4899;42.644;23.366;2022-11-20T00:40:28;44.40;;;29.67;;
9720;SDS011;4899;42.644;23.366;2022-11-20T00:42:55;33.17;;;25.87;;
9720;SDS011;4899;42.644;23.366;2022-11-20T00:45:23;36.57;;;26.20;;
9720;SDS011;4899;42.644;23.366;2022-11-20T00:47:50;29.43;;;23.60;;
9720;SDS011;4899;42.644;23.366;2022-11-20T00:50:16;30.13;;;22.50;;
9720;SDS011;4899;42.644;23.366;2022-11-20T00:52:43;23.73;;;20.87;;
9720;SDS011;4899;42.644;23.366;2022-11-20T00:55:10;35.23;;;19.87;;
9720;SDS011;4899;42.644;23.366;2022-11-20T00:57:37;28.83;;;20.67;;
9720;SDS011;4899;42.644;23.366;2022-11-20T01:00:04;23.70;;;20.30;;
9720;SDS011;4899;42.644;23.366;2022-11-20T01:02:34;24.13;;;20.07;;
9720;SDS011;4899;42.644;23.366;2022-11-20T01:05:01;33.83;;;22.17;;
9720;SDS011;4899;42.644;23.366;2022-11-20T01:07:28;33.47;;;20.17;;
9720;SDS011;4899;42.644;23.366;2022-11-20T01:09:54;23.37;;;19.40;;
9720;SDS011;4899;42.644;23.366;2022-11-20T01:12:21;28.87;;;16.73;;
9720;SDS011;4899;42.644;23.366;2022-11-20T01:14:48;16.97;;;15.20;;
9720;SDS011;4899;42.644;23.366;2022-11-20T01:17:15;20.13;;;13.53;;
9720;SDS011;4899;42.644;23.366;2022-11-20T01:19:43;22.43;;;13.73;;
9720;SDS011;4899;42.644;23.366;2022-11-20T01:22:10;18.43;;;13.17;;
9720;SDS011;4899;42.644;23.366;2022-11-20T01:24:37;17.33;;;13.33;;
9720;SDS011;4899;42.644;23.366;2022-11-20T01:27:04;15.70;;;11.67;;
9720;SDS011;4899;42.644;23.366;2022-11-20T01:29:30;21.93;;;13.23;;
9720;SDS011;4899;42.644;23.366;2022-11-20T01:31:57;13.30;;;11.73;;
9720;SDS011;4899;42.644;23.366;2022-11-20T01:34:24;18.37;;;13.20;;
9720;SDS011;4899;42.644;23.366;2022-11-20T01:36:52;20.03;;;15.23;;
9720;SDS011;4899;42.644;23.366;2022-11-20T01:39:20;17.23;;;14.00;;
9720;SDS011;4899;42.644;23.366;2022-11-20T01:41:48;20.30;;;14.73;;
9720;SDS011;4899;42.644;23.366;2022-11-20T01:44:43;21.67;;;14.37;;
9720;SDS011;4899;42.644;23.366;2022-11-20T01:47:16;17.47;;;12.70;;
9720;SDS011;4899;42.644;23.366;2022-11-20T01:49:48;22.83;;;15.17;;
9720;SDS011;4899;42.644;23.366;2022-11-20T01:52:21;25.57;;;17.47;;
9720;SDS011;4899;42.644;23.366;2022-11-20T01:54:51;18.13;;;15.07;;
9720;SDS011;4899;42.644;23.366;2022-11-20T01:57:22;24.23;;;15.47;;
9720;SDS011;4899;42.644;23.366;2022-11-20T01:59:53;20.37;;;16.60;;
9720;SDS011;4899;42.644;23.366;2022-11-20T02:02:23;29.87;;;17.57;;
9720;SDS011;4899;42.644;23.366;2022-11-20T02:04:50;28.77;;;16.80;;
9720;SDS011;4899;42.644;23.366;2022-11-20T02:07:21;24.57;;;14.93;;
9720;SDS011;4899;42.644;23.366;2022-11-20T02:09:50;25.07;;;15.03;;
9720;SDS011;4899;42.644;23.366;2022-11-20T02:12:17;23.30;;;15.60;;
9720;SDS011;4899;42.644;23.366;2022-11-20T02:14:58;26.43;;;15.97;;
9720;SDS011;4899;42.644;23.366;2022-11-20T02:17:25;23.87;;;16.03;;
9720;SDS011;4899;42.644;23.366;2022-11-20T02:19:52;32.17;;;15.50;;
9720;SDS011;4899;42.644;23.366;2022-11-20T02:22:22;16.80;;;13.90;;
9720;SDS011;4899;42.644;23.366;2022-11-20T02:24:56;13.23;;;11.60;;
9720;SDS011;4899;42.644;23.366;2022-11-20T02:27:25;19.23;;;11.60;;
9720;SDS011;4899;42.644;23.366;2022-11-20T02:29:53;12.87;;;9.87;;
9720;SDS011;4899;42.644;23.366;2022-11-20T02:32:24;9.13;;;7.97;;
9720;SDS011;4899;42.644;23.366;2022-11-20T02:34:52;16.77;;;9.90;;
9720;SDS011;4899;42.644;23.366;2022-11-20T02:37:19;12.13;;;8.83;;
9720;SDS011;4899;42.644;23.366;2022-11-20T02:39:48;11.90;;;8.03;;
9720;SDS011;4899;42.644;23.366;2022-11-20T02:42:18;11.47;;;6.97;;
9720;SDS011;4899;42.644;23.366;2022-11-20T02:44:45;9.40;;;7.10;;
9720;SDS011;4899;42.644;23.366;2022-11-20T02:47:12;11.37;;;7.10;;
9720;SDS011;4899;42.644;23.366;2022-11-20T02:49:39;6.07;;;5.57;;
9720;SDS011;4899;42.644;23.366;2022-11-20T02:52:05;7.70;;;5.70;;
9720;SDS011;4899;42.644;23.366;2022-11-20T02:54:32;11.90;;;5.83;;
9720;SDS011;4899;42.644;23.366;2022-11-20T02:56:59;8.90;;;5.30;;
9720;SDS011;4899;42.644;23.366;2022-11-20T02:59:27;9.93;;;6.47;;
9720;SDS011;4899;42.644;23.366;2022-11-20T03:01:54;7.47;;;6.43;;
9720;SDS011;4899;42.644;23.366;2022-11-20T03:04:21;12.23;;;5.83;;
9720;SDS011;4899;42.644;23.366;2022-11-20T03:06:47;6.00;;;4.57;;
9720;SDS011;4899;42.644;23.366;2022-11-20T03:09:14;9.03;;;4.93;;
9720;SDS011;4899;42.644;23.366;2022-11-20T03:11:41;12.17;;;5.73;;
9720;SDS011;4899;42.644;23.366;2022-11-20T03:14:08;16.83;;;7.40;;
9720;SDS011;4899;42.644;23.366;2022-11-20T03:16:36;10.13;;;7.40;;
9720;SDS011;4899;42.644;23.366;2022-11-20T03:19:03;8.93;;;6.30;;
9720;SDS011;4899;42.644;23.366;2022-11-20T03:21:30;14.30;;;7.37;;
9720;SDS011;4899;42.644;23.366;2022-11-20T03:23:59;15.23;;;6.20;;
9720;SDS011;4899;42.644;23.366;2022-11-20T03:26:26;10.70;;;6.00;;
9720;SDS011;4899;42.644;23.366;2022-11-20T03:28:53;6.93;;;5.30;;
9720;SDS011;4899;42.644;23.366;2022-11-20T03:31:22;11.37;;;5.80;;
9720;SDS011;4899;42.644;23.366;2022-11-20T03:33:51;6.40;;;5.60;;
9720;SDS011;4899;42.644;23.366;2022-11-20T03:36:19;11.60;;;5.43;;
9720;SDS011;4899;42.644;23.366;2022-11-20T03:38:46;5.70;;;4.50;;
9720;SDS011;4899;42.644;23.366;2022-11-20T03:41:16;9.83;;;4.93;;
9720;SDS011;4899;42.644;23.366;2022-11-20T03:43:47;6.67;;;4.67;;
9720;SDS011;4899;42.644;23.366;2022-11-20T03:46:15;6.17;;;4.23;;
9720;SDS011;4899;42.644;23.366;2022-11-20T03:48:42;7.63;;;4.03;;
9720;SDS011;4899;42.644;23.366;2022-11-20T03:51:11;14.63;;;4.67;;
9720;SDS011;4899;42.644;23.366;2022-11-20T03:53:39;9.27;;;4.27;;
9720;SDS011;4899;42.644;23.366;2022-11-20T03:56:07;8.53;;;4.17;;
9720;SDS011;4899;42.644;23.366;2022-11-20T03:58:35;9.07;;;3.97;;
9720;SDS011;4899;42.644;23.366;2022-11-20T04:01:05;8.33;;;4.73;;
9720;SDS011;4899;42.644;23.366;2022-11-20T04:03:33;6.37;;;4.43;;
9720;SDS011;4899;42.644;23.366;2022-11-20T04:06:04;10.73;;;4.40;;
9720;SDS011;4899;42.644;23.366;2022-11-20T04:08:33;11.10;;;5.30;;
9720;SDS011;4899;42.644;23.366;2022-11-20T04:11:09;10.30;;;5.43;;
9720;SDS011;4899;42.644;23.366;2022-11-20T04:13:37;7.17;;;4.90;;
9720;SDS011;4899;42.644;23.366;2022-11-20T04:16:04;8.13;;;5.10;;
9720;SDS011;4899;42.644;23.366;2022-11-20T04:18:32;8.80;;;4.80;;
9720;SDS011;4899;42.644;23.366;2022-11-20T04:20:59;8.43;;;5.50;;
9720;SDS011;4899;42.644;23.366;2022-11-20T04:23:26;10.03;;;5.27;;
9720;SDS011;4899;42.644;23.366;2022-11-20T04:25:55;4.37;;;3.97;;
9720;SDS011;4899;42.644;23.366;2022-11-20T04:28:27;7.63;;;4.60;;
9720;SDS011;4899;42.644;23.366;2022-11-20T04:30:54;4.10;;;3.43;;
9720;SDS011;4899;42.644;23.366;2022-11-20T04:33:21;8.97;;;4.20;;
9720;SDS011;4899;42.644;23.366;2022-11-20T04:35:47;8.17;;;4.93;;
9720;SDS011;4899;42.644;23.366;2022-11-20T04:38:14;6.27;;;4.20;;
9720;SDS011;4899;42.644;23.366;2022-11-20T04:40:41;13.50;;;5.60;;
9720;SDS011;4899;42.644;23.366;2022-11-20T04:43:09;13.03;;;5.27;;
9720;SDS011;4899;42.644;23.366;2022-11-20T04:45:36;10.73;;;4.67;;
9720;SDS011;4899;42.644;23.366;2022-11-20T04:48:03;10.03;;;4.80;;
9720;SDS011;4899;42.644;23.366;2022-11-20T04:50:30;13.03;;;4.90;;
9720;SDS011;4899;42.644;23.366;2022-11-20T04:52:57;7.13;;;4.30;;
9720;SDS011;4899;42.644;23.366;2022-11-20T04:55:23;7.30;;;3.80;;
9720;SDS011;4899;42.644;23.366;2022-11-20T04:57:50;5.90;;;3.80;;
9720;SDS011;4899;42.644;23.366;2022-11-20T05:00:19;7.53;;;4.07;;
9720;SDS011;4899;42.644;23.366;2022-11-20T05:02:45;5.33;;;3.20;;
9720;SDS011;4899;42.644;23.366;2022-11-20T05:05:12;7.83;;;4.57;;
9720;SDS011;4899;42.644;23.366;2022-11-20T05:07:39;15.53;;;4.67;;
9720;SDS011;4899;42.644;23.366;2022-11-20T05:10:06;9.57;;;4.33;;
9720;SDS011;4899;42.644;23.366;2022-11-20T05:12:33;14.03;;;5.03;;
9720;SDS011;4899;42.644;23.366;2022-11-20T05:15:00;8.73;;;4.43;;
9720;SDS011;4899;42.644;23.366;2022-11-20T05:17:28;11.10;;;4.53;;
9720;SDS011;4899;42.644;23.366;2022-11-20T05:19:55;9.67;;;4.60;;
9720;SDS011;4899;42.644;23.366;2022-11-20T05:22:22;9.83;;;4.90;;
9720;SDS011;4899;42.644;23.366;2022-11-20T05:24:49;5.57;;;5.00;;
9720;SDS011;4899;42.644;23.366;2022-11-20T05:27:16;7.10;;;4.93;;
9720;SDS011;4899;42.644;23.366;2022-11-20T05:29:42;17.97;;;7.73;;
9720;SDS011;4899;42.644;23.366;2022-11-20T05:32:09;6.30;;;5.33;;
9720;SDS011;4899;42.644;23.366;2022-11-20T05:34:37;10.20;;;6.50;;
9720;SDS011;4899;42.644;23.366;2022-11-20T05:37:04;8.87;;;6.43;;
9720;SDS011;4899;42.644;23.366;2022-11-20T05:39:31;13.00;;;8.13;;
9720;SDS011;4899;42.644;23.366;2022-11-20T05:41:58;9.23;;;7.90;;
9720;SDS011;4899;42.644;23.366;2022-11-20T05:44:38;12.63;;;8.90;;
9720;SDS011;4899;42.644;23.366;2022-11-20T05:47:05;10.27;;;8.30;;
9720;SDS011;4899;42.644;23.366;2022-11-20T05:49:32;20.40;;;9.93;;
9720;SDS011;4899;42.644;23.366;2022-11-20T05:52:00;18.30;;;9.73;;
9720;SDS011;4899;42.644;23.366;2022-11-20T05:54:27;19.30;;;10.80;;
9720;SDS011;4899;42.644;23.366;2022-11-20T05:56:54;14.40;;;9.53;;
9720;SDS011;4899;42.644;23.366;2022-11-20T05:59:20;14.50;;;9.83;;
9720;SDS011;4899;42.644;23.366;2022-11-20T06:01:47;13.10;;;9.27;;
9720;SDS011;4899;42.644;23.366;2022-11-20T06:04:14;10.77;;;9.20;;
9720;SDS011;4899;42.644;23.366;2022-11-20T06:06:41;18.93;;;11.13;;
9720;SDS011;4899;42.644;23.366;2022-11-20T06:09:09;24.83;;;11.47;;
9720;SDS011;4899;42.644;23.366;2022-11-20T06:11:36;22.33;;;11.53;;
9720;SDS011;4899;42.644;23.366;2022-11-20T06:14:02;14.90;;;10.50;;
9720;SDS011;4899;42.644;23.366;2022-11-20T06:16:29;15.23;;;10.37;;
9720;SDS011;4899;42.644;23.366;2022-11-20T06:18:56;13.00;;;9.40;;
9720;SDS011;4899;42.644;23.366;2022-11-20T06:21:23;11.93;;;8.43;;
9720;SDS011;4899;42.644;23.366;2022-11-20T06:23:51;12.13;;;8.60;;
9720;SDS011;4899;42.644;23.366;2022-11-20T06:26:21;13.50;;;8.93;;
9720;SDS011;4899;42.644;23.366;2022-11-20T06:28:49;10.90;;;8.20;;
9720;SDS011;4899;42.644;23.366;2022-11-20T06:31:17;11.73;;;7.77;;
9720;SDS011;4899;42.644;23.366;2022-11-20T06:33:45;10.93;;;8.77;;
9720;SDS011;4899;42.644;23.366;2022-11-20T06:36:13;14.50;;;9.10;;
9720;SDS011;4899;42.644;23.366;2022-11-20T06:38:41;15.50;;;8.47;;
9720;SDS011;4899;42.644;23.366;2022-11-20T06:41:10;14.47;;;6.93;;
9720;SDS011;4899;42.644;23.366;2022-11-20T06:43:40;9.30;;;7.17;;
9720;SDS011;4899;42.644;23.366;2022-11-20T06:46:08;17.07;;;8.10;;
9720;SDS011;4899;42.644;23.366;2022-11-20T06:48:36;15.40;;;7.33;;
9720;SDS011;4899;42.644;23.366;2022-11-20T06:51:03;9.50;;;6.10;;
9720;SDS011;4899;42.644;23.366;2022-11-20T06:53:30;16.93;;;6.50;;
9720;SDS011;4899;42.644;23.366;2022-11-20T06:55:57;11.83;;;5.67;;
9720;SDS011;4899;42.644;23.366;2022-11-20T06:58:26;8.70;;;4.90;;
9720;SDS011;4899;42.644;23.366;2022-11-20T07:00:54;9.63;;;6.33;;
9720;SDS011;4899;42.644;23.366;2022-11-20T07:03:24;6.50;;;4.27;;
9720;SDS011;4899;42.644;23.366;2022-11-20T07:05:51;8.27;;;4.53;;
9720;SDS011;4899;42.644;23.366;2022-11-20T07:08:20;10.63;;;4.83;;
9720;SDS011;4899;42.644;23.366;2022-11-20T07:10:46;5.60;;;4.10;;
9720;SDS011;4899;42.644;23.366;2022-11-20T07:13:13;6.70;;;4.27;;
9720;SDS011;4899;42.644;23.366;2022-11-20T07:15:40;8.87;;;5.27;;
9720;SDS011;4899;42.644;23.366;2022-11-20T07:18:08;9.17;;;4.73;;
9720;SDS011;4899;42.644;23.366;2022-11-20T07:20:36;12.17;;;5.23;;
9720;SDS011;4899;42.644;23.366;2022-11-20T07:23:03;9.83;;;4.43;;
9720;SDS011;4899;42.644;23.366;2022-11-20T07:25:29;13.00;;;4.80;;
9720;SDS011;4899;42.644;23.366;2022-11-20T07:27:56;11.70;;;4.63;;
9720;SDS011;4899;42.644;23.366;2022-11-20T07:30:24;8.30;;;3.43;;
9720;SDS011;4899;42.644;23.366;2022-11-20T07:32:51;8.37;;;4.07;;
9720;SDS011;4899;42.644;23.366;2022-11-20T07:35:20;8.83;;;4.43;;
9720;SDS011;4899;42.644;23.366;2022-11-20T07:37:48;5.80;;;4.00;;
9720;SDS011;4899;42.644;23.366;2022-11-20T07:40:15;5.57;;;3.97;;
9720;SDS011;4899;42.644;23.366;2022-11-20T07:42:46;12.37;;;5.00;;
9720;SDS011;4899;42.644;23.366;2022-11-20T07:45:15;6.23;;;4.50;;
9720;SDS011;4899;42.644;23.366;2022-11-20T07:47:41;9.53;;;4.53;;
9720;SDS011;4899;42.644;23.366;2022-11-20T07:50:08;12.50;;;5.17;;
9720;SDS011;4899;42.644;23.366;2022-11-20T07:52:37;8.63;;;4.20;;
9720;SDS011;4899;42.644;23.366;2022-11-20T07:55:05;12.07;;;5.17;;
9720;SDS011;4899;42.644;23.366;2022-11-20T07:57:32;17.03;;;6.13;;
9720;SDS011;4899;42.644;23.366;2022-11-20T07:59:59;10.57;;;5.20;;
9720;SDS011;4899;42.644;23.366;2022-11-20T08:02:26;11.53;;;5.10;;
9720;SDS011;4899;42.644;23.366;2022-11-20T08:04:53;8.40;;;4.77;;
9720;SDS011;4899;42.644;23.366;2022-11-20T08:07:20;10.03;;;5.33;;
9720;SDS011;4899;42.644;23.366;2022-11-20T08:09:48;8.20;;;5.23;;
9720;SDS011;4899;42.644;23.366;2022-11-20T08:12:16;9.00;;;4.43;;
9720;SDS011;4899;42.644;23.366;2022-11-20T08:15:02;13.70;;;5.70;;
9720;SDS011;4899;42.644;23.366;2022-11-20T08:17:29;8.47;;;4.90;;
9720;SDS011;4899;42.644;23.366;2022-11-20T08:19:56;11.33;;;3.73;;
9720;SDS011;4899;42.644;23.366;2022-11-20T08:22:23;8.03;;;3.73;;
9720;SDS011;4899;42.644;23.366;2022-11-20T08:24:52;11.70;;;3.83;;
9720;SDS011;4899;42.644;23.366;2022-11-20T08:27:18;11.97;;;4.30;;
9720;SDS011;4899;42.644;23.366;2022-11-20T08:29:45;5.43;;;3.07;;
9720;SDS011;4899;42.644;23.366;2022-11-20T08:32:12;18.47;;;4.20;;
9720;SDS011;4899;42.644;23.366;2022-11-20T08:34:39;18.37;;;4.07;;
9720;SDS011;4899;42.644;23.366;2022-11-20T08:37:06;18.17;;;3.87;;
9720;SDS011;4899;42.644;23.366;2022-11-20T08:39:32;10.90;;;3.17;;
9720;SDS011;4899;42.644;23.366;2022-11-20T08:42:01;9.87;;;2.97;;
9720;SDS011;4899;42.644;23.366;2022-11-20T08:44:28;8.90;;;2.90;;
9720;SDS011;4899;42.644;23.366;2022-11-20T08:46:54;5.83;;;2.37;;
9720;SDS011;4899;42.644;23.366;2022-11-20T08:49:22;7.83;;;2.87;;
9720;SDS011;4899;42.644;23.366;2022-11-20T08:51:48;8.17;;;2.73;;
9720;SDS011;4899;42.644;23.366;2022-11-20T08:54:18;8.30;;;2.70;;
9720;SDS011;4899;42.644;23.366;2022-11-20T08:56:47;6.03;;;3.37;;
9720;SDS011;4899;42.644;23.366;2022-11-20T08:59:15;6.83;;;2.93;;
9720;SDS011;4899;42.644;23.366;2022-11-20T09:01:42;10.83;;;3.90;;
9720;SDS011;4899;42.644;23.366;2022-11-20T09:04:08;8.60;;;3.60;;
9720;SDS011;4899;42.644;23.366;2022-11-20T09:06:36;15.27;;;4.00;;
9720;SDS011;4899;42.644;23.366;2022-11-20T09:09:03;23.93;;;5.17;;
9720;SDS011;4899;42.644;23.366;2022-11-20T09:11:31;22.63;;;5.53;;
9720;SDS011;4899;42.644;23.366;2022-11-20T09:13:57;9.80;;;4.47;;
9720;SDS011;4899;42.644;23.366;2022-11-20T09:16:26;15.03;;;5.50;;
9720;SDS011;4899;42.644;23.366;2022-11-20T09:18:53;9.93;;;6.67;;
9720;SDS011;4899;42.644;23.366;2022-11-20T09:21:20;15.07;;;8.07;;
9720;SDS011;4899;42.644;23.366;2022-11-20T09:23:47;10.97;;;8.13;;
9720;SDS011;4899;42.644;23.366;2022-11-20T09:26:14;9.57;;;8.37;;
9720;SDS011;4899;42.644;23.366;2022-11-20T09:28:41;24.33;;;11.10;;
9720;SDS011;4899;42.644;23.366;2022-11-20T09:31:08;21.87;;;10.83;;
9720;SDS011;4899;42.644;23.366;2022-11-20T09:33:43;20.47;;;10.60;;
9720;SDS011;4899;42.644;23.366;2022-11-20T09:36:10;13.70;;;10.00;;
9720;SDS011;4899;42.644;23.366;2022-11-20T09:38:36;20.77;;;9.70;;
9720;SDS011;4899;42.644;23.366;2022-11-20T09:41:04;13.93;;;9.80;;
9720;SDS011;4899;42.644;23.366;2022-11-20T09:43:37;14.07;;;9.17;;
9720;SDS011;4899;42.644;23.366;2022-11-20T09:46:20;12.20;;;9.20;;
9720;SDS011;4899;42.644;23.366;2022-11-20T09:48:59;11.13;;;7.90;;
9720;SDS011;4899;42.644;23.366;2022-11-20T09:51:42;20.57;;;10.00;;
9720;SDS011;4899;42.644;23.366;2022-11-20T09:54:17;16.07;;;8.50;;
9720;SDS011;4899;42.644;23.366;2022-11-20T09:56:46;17.43;;;7.33;;
9720;SDS011;4899;42.644;23.366;2022-11-20T09:59:21;12.47;;;6.93;;
9720;SDS011;4899;42.644;23.366;2022-11-20T10:01:56;9.63;;;6.13;;
9720;SDS011;4899;42.644;23.366;2022-11-20T10:04:27;12.63;;;6.13;;
9720;SDS011;4899;42.644;23.366;2022-11-20T10:07:00;7.17;;;5.07;;
9720;SDS011;4899;42.644;23.366;2022-11-20T10:09:34;10.73;;;5.10;;
9720;SDS011;4899;42.644;23.366;2022-11-20T10:12:11;23.30;;;5.63;;
9720;SDS011;4899;42.644;23.366;2022-11-20T10:14:48;11.73;;;5.40;;
9720;SDS011;4899;42.644;23.366;2022-11-20T10:17:25;11.53;;;4.97;;
9720;SDS011;4899;42.644;23.366;2022-11-20T10:20:16;8.20;;;4.70;;
9720;SDS011;4899;42.644;23.366;2022-11-20T10:22:49;8.13;;;3.83;;
9720;SDS011;4899;42.644;23.366;2022-11-20T10:25:37;12.53;;;3.90;;
9720;SDS011;4899;42.644;23.366;2022-11-20T10:28:09;8.80;;;3.70;;
9720;SDS011;4899;42.644;23.366;2022-11-20T10:31:00;8.30;;;4.13;;
9720;SDS011;4899;42.644;23.366;2022-11-20T10:33:31;9.10;;;3.67;;
9720;SDS011;4899;42.644;23.366;2022-11-20T10:36:07;8.83;;;3.50;;
9720;SDS011;4899;42.644;23.366;2022-11-20T10:38:42;9.27;;;4.23;;
9720;SDS011;4899;42.644;23.366;2022-11-20T10:41:16;5.27;;;3.70;;
9720;SDS011;4899;42.644;23.366;2022-11-20T10:43:51;7.47;;;4.47;;
9720;SDS011;4899;42.644;23.366;2022-11-20T10:46:21;9.97;;;4.23;;
9720;SDS011;4899;42.644;23.366;2022-11-20T10:48:50;8.90;;;4.57;;
9720;SDS011;4899;42.644;23.366;2022-11-20T10:51:25;6.50;;;3.87;;
9720;SDS011;4899;42.644;23.366;2022-11-20T10:54:03;9.97;;;4.70;;
9720;SDS011;4899;42.644;23.366;2022-11-20T10:56:39;13.60;;;5.83;;
9720;SDS011;4899;42.644;23.366;2022-11-20T10:59:19;9.97;;;4.90;;
9720;SDS011;4899;42.644;23.366;2022-11-20T11:01:59;13.50;;;6.10;;
9720;SDS011;4899;42.644;23.366;2022-11-20T11:04:31;17.70;;;7.80;;
9720;SDS011;4899;42.644;23.366;2022-11-20T11:07:07;14.40;;;6.87;;
9720;SDS011;4899;42.644;23.366;2022-11-20T11:09:39;12.47;;;6.10;;
9720;SDS011;4899;42.644;23.366;2022-11-20T11:12:10;15.10;;;7.57;;
9720;SDS011;4899;42.644;23.366;2022-11-20T11:14:44;12.73;;;8.17;;
9720;SDS011;4899;42.644;23.366;2022-11-20T11:17:23;18.43;;;10.00;;
9720;SDS011;4899;42.644;23.366;2022-11-20T11:19:57;11.37;;;8.83;;
9720;SDS011;4899;42.644;23.366;2022-11-20T11:22:26;16.13;;;13.47;;
9720;SDS011;4899;42.644;23.366;2022-11-20T11:24:55;28.10;;;22.20;;
9720;SDS011;4899;42.644;23.366;2022-11-20T11:27:21;55.00;;;34.20;;
9720;SDS011;4899;42.644;23.366;2022-11-20T11:29:48;60.23;;;41.30;;
9720;SDS011;4899;42.644;23.366;2022-11-20T11:32:17;67.93;;;43.53;;
9720;SDS011;4899;42.644;23.366;2022-11-20T11:34:57;105.33;;;57.67;;
9720;SDS011;4899;42.644;23.366;2022-11-20T11:37:32;183.00;;;77.93;;
9720;SDS011;4899;42.644;23.366;2022-11-20T11:40:01;232.23;;;87.10;;
9720;SDS011;4899;42.644;23.366;2022-11-20T11:42:29;258.53;;;94.93;;
9720;SDS011;4899;42.644;23.366;2022-11-20T11:44:58;294.60;;;104.83;;
9720;SDS011;4899;42.644;23.366;2022-11-20T11:47:31;352.77;;;114.47;;
9720;SDS011;4899;42.644;23.366;2022-11-20T11:50:13;414.23;;;129.70;;
9720;SDS011;4899;42.644;23.366;2022-11-20T11:52:44;567.90;;;161.67;;
9720;SDS011;4899;42.644;23.366;2022-11-20T11:55:17;662.30;;;175.70;;
9720;SDS011;4899;42.644;23.366;2022-11-20T11:57:53;712.67;;;189.73;;
9720;SDS011;4899;42.644;23.366;2022-11-20T12:00:23;770.10;;;195.57;;
9720;SDS011;4899;42.644;23.366;2022-11-20T12:02:56;768.63;;;196.43;;
9720;SDS011;4899;42.644;23.366;2022-11-20T12:05:30;767.77;;;199.60;;
9720;SDS011;4899;42.644;23.366;2022-11-20T12:08:06;805.53;;;201.47;;
9720;SDS011;4899;42.644;23.366;2022-11-20T12:10:43;786.33;;;198.87;;
9720;SDS011;4899;42.644;23.366;2022-11-20T12:13:17;875.07;;;215.43;;
9720;SDS011;4899;42.644;23.366;2022-11-20T12:15:56;904.83;;;223.77;;
9720;SDS011;4899;42.644;23.366;2022-11-20T12:18:24;857.67;;;213.33;;
9720;SDS011;4899;42.644;23.366;2022-11-20T12:20:55;942.33;;;227.97;;
9720;SDS011;4899;42.644;23.366;2022-11-20T12:23:39;995.00;;;242.53;;
9720;SDS011;4899;42.644;23.366;2022-11-20T12:26:16;1109.40;;;256.30;;
9720;SDS011;4899;42.644;23.366;2022-11-20T12:28:56;1108.67;;;261.07;;
9720;SDS011;4899;42.644;23.366;2022-11-20T12:31:41;1163.97;;;270.60;;
9720;SDS011;4899;42.644;23.366;2022-11-20T12:34:35;1134.00;;;268.87;;
9720;SDS011;4899;42.644;23.366;2022-11-20T12:37:17;1174.77;;;272.60;;
9720;SDS011;4899;42.644;23.366;2022-11-20T12:39:58;1132.17;;;265.63;;
9720;SDS011;4899;42.644;23.366;2022-11-20T12:42:50;1142.93;;;266.40;;
9720;SDS011;4899;42.644;23.366;2022-11-20T12:45:51;1046.20;;;248.60;;
9720;SDS011;4899;42.644;23.366;2022-11-20T12:48:33;776.83;;;202.70;;
9720;SDS011;4899;42.644;23.366;2022-11-20T12:51:13;668.97;;;180.30;;
9720;SDS011;4899;42.644;23.366;2022-11-20T12:53:55;537.10;;;154.37;;
9720;SDS011;4899;42.644;23.366;2022-11-20T12:56:35;473.07;;;141.13;;
9720;SDS011;4899;42.644;23.366;2022-11-20T12:59:18;418.03;;;132.87;;
9720;SDS011;4899;42.644;23.366;2022-11-20T13:01:55;375.57;;;124.07;;
9720;SDS011;4899;42.644;23.366;2022-11-20T13:04:32;369.97;;;120.33;;
9720;SDS011;4899;42.644;23.366;2022-11-20T13:07:13;292.33;;;104.40;;
9720;SDS011;4899;42.644;23.366;2022-11-20T13:09:42;182.83;;;79.27;;
9720;SDS011;4899;42.644;23.366;2022-11-20T13:12:14;172.83;;;75.07;;
9720;SDS011;4899;42.644;23.366;2022-11-20T13:14:46;131.07;;;71.37;;
9720;SDS011;4899;42.644;23.366;2022-11-20T13:17:22;130.30;;;67.07;;
9720;SDS011;4899;42.644;23.366;2022-11-20T13:19:57;254.43;;;91.43;;
9720;SDS011;4899;42.644;23.366;2022-11-20T13:22:25;243.13;;;96.10;;
9720;SDS011;4899;42.644;23.366;2022-11-20T13:24:52;242.53;;;93.97;;
9720;SDS011;4899;42.644;23.366;2022-11-20T13:27:21;244.63;;;93.97;;
9720;SDS011;4899;42.644;23.366;2022-11-20T13:30:03;212.10;;;88.40;;
9720;SDS011;4899;42.644;23.366;2022-11-20T13:32:48;223.50;;;85.53;;
9720;SDS011;4899;42.644;23.366;2022-11-20T13:35:23;179.37;;;80.27;;
9720;SDS011;4899;42.644;23.366;2022-11-20T13:37:59;201.60;;;84.97;;
9720;SDS011;4899;42.644;23.366;2022-11-20T13:40:28;226.40;;;88.37;;
9720;SDS011;4899;42.644;23.366;2022-11-20T13:43:01;168.03;;;78.60;;
9720;SDS011;4899;42.644;23.366;2022-11-20T13:45:31;182.47;;;72.73;;
9720;SDS011;4899;42.644;23.366;2022-11-20T13:48:00;133.60;;;66.00;;
9720;SDS011;4899;42.644;23.366;2022-11-20T13:50:40;150.27;;;68.07;;
9720;SDS011;4899;42.644;23.366;2022-11-20T13:53:20;132.03;;;64.80;;
9720;SDS011;4899;42.644;23.366;2022-11-20T13:55:58;125.73;;;67.90;;
9720;SDS011;4899;42.644;23.366;2022-11-20T13:58:40;140.37;;;63.13;;
9720;SDS011;4899;42.644;23.366;2022-11-20T14:01:21;141.47;;;62.07;;
9720;SDS011;4899;42.644;23.366;2022-11-20T14:03:50;101.63;;;54.80;;
9720;SDS011;4899;42.644;23.366;2022-11-20T14:06:22;95.10;;;53.40;;
9720;SDS011;4899;42.644;23.366;2022-11-20T14:08:53;111.67;;;58.13;;
9720;SDS011;4899;42.644;23.366;2022-11-20T14:11:21;90.70;;;53.97;;
9720;SDS011;4899;42.644;23.366;2022-11-20T14:13:55;92.90;;;52.87;;
9720;SDS011;4899;42.644;23.366;2022-11-20T14:16:25;97.70;;;54.23;;
9720;SDS011;4899;42.644;23.366;2022-11-20T14:18:54;95.33;;;52.13;;
9720;SDS011;4899;42.644;23.366;2022-11-20T14:21:22;97.80;;;52.73;;
9720;SDS011;4899;42.644;23.366;2022-11-20T14:23:52;98.47;;;54.10;;
9720;SDS011;4899;42.644;23.366;2022-11-20T14:26:21;91.80;;;52.47;;
9720;SDS011;4899;42.644;23.366;2022-11-20T14:28:48;85.30;;;51.73;;
9720;SDS011;4899;42.644;23.366;2022-11-20T14:31:21;96.97;;;55.43;;
9720;SDS011;4899;42.644;23.366;2022-11-20T14:33:50;94.23;;;56.10;;
9720;SDS011;4899;42.644;23.366;2022-11-20T14:36:19;102.13;;;55.60;;
9720;SDS011;4899;42.644;23.366;2022-11-20T14:38:48;96.20;;;55.33;;
9720;SDS011;4899;42.644;23.366;2022-11-20T14:41:16;96.73;;;56.63;;
9720;SDS011;4899;42.644;23.366;2022-11-20T14:43:45;95.90;;;58.63;;
9720;SDS011;4899;42.644;23.366;2022-11-20T14:46:14;178.40;;;67.23;;
9720;SDS011;4899;42.644;23.366;2022-11-20T14:48:43;120.23;;;59.80;;
9720;SDS011;4899;42.644;23.366;2022-11-20T14:51:23;114.53;;;60.60;;
9720;SDS011;4899;42.644;23.366;2022-11-20T14:53:53;108.30;;;59.57;;
9720;SDS011;4899;42.644;23.366;2022-11-20T14:56:21;110.10;;;61.77;;
9720;SDS011;4899;42.644;23.366;2022-11-20T14:58:55;115.43;;;60.50;;